^^
Station Historical Data
Daily Summary for March 8, 2017 Units:  Metric    English   Both
« Previous Day
Next Day »
Daily Weekly Monthly Yearly Custom
  High: Low: Average:
Temperature: 33.6 °C 28.3 °C 31.1 °C
Dew Point: 11.6 °C 7.4 °C 9.7 °C
Humidity: 35% 20% 27%
Wind Speed: 17.7km/h 0km/h 6.8km/h
Wind Gust: 24.1km/h - -
Wind- - ESE
Pressure: 1006.3 hPa 1005 hPa -
Precipitation: 0 mm    
Historical Graphs
 
 
Tabular Data for March 8, 2017
Time Temperature Dew Point Pressure Wind Wind Speed Wind Gust Humidity Rainfall Rate (Hourly) solar Conditions
17:07 32.9 °C 8.4 °C 1005 hPa Calm     22% 0 mm 134.0 W/m2
17:15 33.1 °C 8.5 °C 1005 hPa Calm     22% 0 mm 174.0 W/m2
17:23 33.4 °C 7.4 °C 1005 hPa Calm     20% 0 mm 148.0 W/m2
17:29 33.5 °C 7.5 °C 1005 hPa Calm     20% 0 mm 142.0 W/m2
17:34 33.6 °C 7.5 °C 1005 hPa SW 7.9 km/h 9.7 km/h 20% 0 mm 151.0 W/m2
17:37 33.6 °C 7.5 °C 1005 hPa SSW 13 km/h 13 km/h 20% 0 mm 144.0 W/m2
17:44 33.6 °C 8.3 °C 1005.3 hPa SE 17.7 km/h 20.9 km/h 21% 0 mm 127.0 W/m2
18:02 32.7 °C 8.9 °C 1005.3 hPa SE 17.7 km/h 24.1 km/h 23% 0 mm 53.0 W/m2
18:07 32.6 °C 8.8 °C 1005.3 hPa SE 11.1 km/h 19.3 km/h 23% 0 mm 47.0 W/m2
18:18 32.4 °C 9.2 °C 1005.3 hPa SE 11.1 km/h 12.9 km/h 24% 0 mm 39.0 W/m2
18:28 32.4 °C 9.2 °C 1005.3 hPa Calm   11.3 km/h 24% 0 mm 26.0 W/m2
18:38 32.3 °C 9.8 °C 1005.3 hPa Calm     25% 0 mm 35.0 W/m2
19:00 31.8 °C 10.5 °C 1005.6 hPa ESE 1.4 km/h 11.3 km/h 27% 0 mm 16.0 W/m2
19:12 31.2 °C 10 °C 1005.6 hPa East 3.2 km/h 14.5 km/h 27% 0 mm 7.0 W/m2
19:19 31.2 °C 10 °C 1005.6 hPa East 9.7 km/h 17.7 km/h 27% 0 mm 0.0 W/m2
19:23 30.2 °C 10.7 °C 1005.6 hPa ENE 17.7 km/h 22.5 km/h 30% 0 mm 0.0 W/m2
19:38 29.5 °C 11.1 °C 1006 hPa East 13 km/h 24.1 km/h 32% 0 mm 0.0 W/m2
19:50 29.2 °C 10.8 °C 1005.6 hPa ENE 17.7 km/h 22.5 km/h 32% 0 mm 0.0 W/m2
19:53 28.9 °C 10.5 °C 1006 hPa ENE 9.7 km/h 19.3 km/h 32% 0 mm 0.0 W/m2
20:04 28.9 °C 10.5 °C 1006 hPa ENE 11.1 km/h 11.3 km/h 32% 0 mm 0.0 W/m2
20:14 28.8 °C 11.4 °C 1006 hPa East 4.7 km/h 11.3 km/h 34% 0 mm 0.0 W/m2
20:19 28.6 °C 11.6 °C 1006.3 hPa ENE 9.7 km/h 14.5 km/h 35% 0 mm 0.0 W/m2
20:24 28.4 °C 11.5 °C 1006.3 hPa Calm     35% 0 mm 0.0 W/m2
20:29 28.3 °C 10.9 °C 1006.3 hPa Calm     34% 0 mm 0.0 W/m2
20:34 28.3 °C 10.9 °C 1006.3 hPa Calm     34% 0 mm 0.0 W/m2
20:40 28.4 °C 11 °C 1006.3 hPa Calm     34% 0 mm 0.0 W/m2
Canyon Roadhouse, Fishriver Canyon, Namibia
Compliments of Weather Underground - 1.75 mb